Time;durP1;ratioP1;P1;durP2;ratioP2;P2;SDS_P1;SDS_P2;PMS_P1;PMS_P2;Temp;Humidity;BMP_temperature;BMP_pressure;BME280_temperature;BME280_humidity;BME280_pressure;Samples;Min_cycle;Max_cycle;Signal;HPM_P1;HPM_P2
2022/01/11 00:01:31;;;;;;;;;;;;;;;2.30;70.61;100920.13;5011645;28;19921;-90
2022/01/11 00:03:57;;;;;;;;;;;;;;;2.31;70.79;100919.25;5009786;28;20353;-90
2022/01/11 06:13:18;;;;;;;;;;;;;;;1.51;81.71;101111.72;5551553;23;19989;-89
2022/01/11 06:15:43;;;;;;;;;;;;;;;1.57;81.99;101117.06;5004306;28;19961;-89
2022/01/11 06:18:08;;;;;;;;;;;;;;;1.40;81.87;101116.78;5004666;28;19921;-92
2022/01/11 06:20:34;;;;;;;;;;;;;;;1.43;81.71;101111.59;5003885;28;20015;-91
2022/01/11 06:22:59;;;;;;;;;;;;;;;1.44;81.86;101110.75;5003495;28;20295;-91
2022/01/11 06:25:24;;;;;;;;;;;;;;;1.49;82.14;101118.66;5003139;28;19928;-90
2022/01/11 06:27:50;;;;;;;;;;;;;;;1.39;81.89;101117.66;5003004;28;19921;-88
2022/01/11 06:30:16;;;;;;;;;;;;;;;1.37;81.98;101114.13;5005555;28;19921;-88
2022/01/11 06:32:43;;;;;;;;;;;;;;;1.35;81.77;101123.66;5003299;28;19922;-88
2022/01/11 06:35:09;;;;;;;;;;;;;;;1.42;81.86;101129.03;5004053;28;19926;-88
2022/01/11 06:37:35;;;;;;;;;;;;;;;1.36;81.59;101122.81;5004715;28;19930;-88
2022/01/11 06:40:02;;;;;;;;;;;;;;;1.40;81.37;101122.00;5004836;28;19918;-88
2022/01/11 06:42:28;;;;;;;;;;;;;;;1.24;81.23;101129.56;5002156;28;20282;-88
2022/01/11 06:44:53;;;;;;;;;;;;;;;1.28;81.08;101138.38;5005630;28;19926;-90
2022/01/11 06:47:18;;;;;;;;;;;;;;;1.34;80.99;101132.34;5003783;28;19979;-88
2022/01/11 06:49:43;;;;;;;;;;;;;;;1.27;81.19;101137.47;5003762;28;19917;-88
2022/01/11 06:52:09;;;;;;;;;;;;;;;1.29;81.19;101142.72;5003202;28;19941;-89
2022/01/11 06:54:37;;;;;;;;;;;;;;;1.29;81.08;101136.63;5018709;28;20005;-90
2022/01/11 06:57:02;;;;;;;;;;;;;;;1.34;80.87;101135.84;5002095;28;19917;-90
2022/01/11 06:59:28;;;;;;;;;;;;;;;1.29;80.81;101136.63;5003693;28;19926;-90
2022/01/11 07:01:58;;;;;;;;;;;;;;;1.21;80.70;101141.72;5003725;28;19921;-91
2022/01/11 07:04:24;;;;;;;;;;;;;;;1.21;81.03;101141.72;5003692;28;19918;-90
2022/01/11 07:06:49;;;;;;;;;;;;;;;1.16;81.01;101139.00;5004925;28;20383;-90
2022/01/11 07:09:14;;;;;;;;;;;;;;;1.20;80.59;101147.81;5004387;28;20336;-89
2022/01/11 07:11:40;;;;;;;;;;;;;;;1.09;80.73;101137.16;5003505;28;19922;-90
2022/01/11 07:14:05;;;;;;;;;;;;;;;1.18;80.72;101141.66;5002325;28;19921;-90
2022/01/11 07:16:30;;;;;;;;;;;;;;;1.25;83.71;101147.00;5003914;28;19921;-92
2022/01/11 07:18:56;;;;;;;;;;;;;;;1.40;86.93;101150.72;5006194;28;19917;-91
2022/01/11 07:21:34;;;;;;;;;;;;;;;;;;;;;
2022/01/11 07:24:03;;;;;;;;;;;;;;;1.45;89.13;101154.28;5003342;28;19922;-92
2022/01/11 07:26:33;;;;;;;;;;;;;;;1.39;89.28;101162.06;5003421;28;19914;-92
2022/01/11 07:29:03;;;;;;;;;;;;;;;1.33;89.39;101167.16;5019278;28;19918;-91
2022/01/11 07:31:31;;;;;;;;;;;;;;;1.31;89.56;101167.16;5005178;28;19918;-92
2022/01/11 07:33:56;;;;;;;;;;;;;;;1.32;89.29;101170.63;5006435;28;19921;-93
2022/01/11 07:36:24;;;;;;;;;;;;;;;1.30;89.33;101169.72;5008188;28;19918;-93
2022/01/11 07:38:51;;;;;;;;;;;;;;;1.23;89.17;101176.59;5026754;28;19922;-94
2022/01/11 07:41:17;;;;;;;;;;;;;;;1.22;89.05;101180.03;5009893;28;20285;-94
2022/01/11 07:43:42;;;;;;;;;;;;;;;1.27;88.81;101184.47;5005349;28;20015;-91
2022/01/11 07:46:07;;;;;;;;;;;;;;;1.23;88.43;101190.50;5005713;28;19917;-92
2022/01/11 07:48:33;;;;;;;;;;;;;;;1.20;88.11;101185.22;5004481;28;19925;-92
2022/01/11 07:50:58;;;;;;;;;;;;;;;1.17;87.69;101190.41;5002805;28;19968;-90
2022/01/11 07:53:23;;;;;;;;;;;;;;;1.15;87.61;101197.34;5004025;28;19960;-90
2022/01/11 07:55:48;;;;;;;;;;;;;;;1.16;87.33;101201.69;5002186;28;19918;-89
2022/01/11 07:58:14;;;;;;;;;;;;;;;1.17;86.99;101203.44;5001527;28;19968;-89
2022/01/11 08:58:58;;;;;;;;;;;;;;;1.06;82.25;101239.78;4989296;28;19934;-92
2022/01/11 09:01:25;;;;;;;;;;;;;;;1.07;82.15;101240.69;4993318;28;19926;-91
2022/01/11 09:03:52;;;;;;;;;;;;;;;1.09;82.35;101239.84;4992483;28;19925;-90
2022/01/11 09:06:20;;;;;;;;;;;;;;;1.06;82.18;101244.16;4991251;28;19921;-91
2022/01/11 09:08:45;;;;;;;;;;;;;;;1.08;82.16;101238.09;4992254;28;19922;-88
2022/01/11 09:11:11;;;;;;;;;;;;;;;1.03;82.07;101251.91;4991948;28;20288;-90
2022/01/11 09:13:37;;;;;;;;;;;;;;;1.05;81.91;101239.75;4993775;28;19921;-91
2022/01/11 09:16:03;;;;;;;;;;;;;;;1.05;81.88;101248.50;4991218;28;19921;-93
2022/01/11 09:18:29;;;;;;;;;;;;;;;1.05;81.72;101247.59;4992330;28;19930;-90
2022/01/11 09:20:54;;;;;;;;;;;;;;;1.07;81.77;101243.31;4991985;28;20352;-91
2022/01/11 09:23:22;;;;;;;;;;;;;;;1.01;81.82;101251.88;4991682;28;19953;-90
2022/01/11 09:25:47;;;;;;;;;;;;;;;1.04;81.52;101246.72;4991041;28;19917;-91
2022/01/11 09:28:12;;;;;;;;;;;;;;;1.05;81.23;101237.16;4986417;28;19993;-89
2022/01/11 09:30:38;;;;;;;;;;;;;;;1.04;81.17;101249.34;4992240;28;19925;-91
2022/01/11 09:33:03;;;;;;;;;;;;;;;1.03;81.13;101244.09;4991146;28;20364;-91
2022/01/11 09:35:29;;;;;;;;;;;;;;;1.03;81.04;101247.56;4992132;28;20008;-88
2022/01/11 09:37:54;;;;;;;;;;;;;;;1.07;80.65;101251.13;4990457;28;19957;-90
2022/01/11 09:40:22;;;;;;;;;;;;;;;1.05;80.61;101250.22;4990639;28;19926;-90
2022/01/11 09:42:48;;;;;;;;;;;;;;;1.03;80.61;101255.41;4991947;28;19926;-90
2022/01/11 09:45:13;;;;;;;;;;;;;;;1.09;80.49;101254.66;4990739;28;19930;-90
2022/01/11 09:47:42;;;;;;;;;;;;;;;1.07;80.44;101252.00;4995570;28;19926;-91
2022/01/11 09:50:08;;;;;;;;;;;;;;;1.08;80.23;101248.53;4995703;28;19922;-89
2022/01/11 09:52:44;;;;;;;;;;;;;;;;;;;;;
2022/01/11 09:55:11;;;;;;;;;;;;;;;1.08;79.89;101245.91;4996461;28;19921;-91
2022/01/11 09:57:37;;;;;;;;;;;;;;;1.07;79.57;101251.13;5002492;28;19922;-91
2022/01/11 10:00:04;;;;;;;;;;;;;;;1.10;79.43;101256.38;5015682;28;20012;-91
2022/01/11 10:02:29;;;;;;;;;;;;;;;1.12;79.29;101241.66;5014599;28;19925;-91
2022/01/11 10:04:59;;;;;;;;;;;;;;;1.16;79.16;101247.81;5014847;28;19968;-93
2022/01/11 10:07:29;;;;;;;;;;;;;;;1.11;78.95;101246.84;5014840;28;19922;-89
2022/01/11 10:09:54;;;;;;;;;;;;;;;1.16;78.77;101240.84;5017644;28;20265;-92
2022/01/11 10:12:22;;;;;;;;;;;;;;;1.23;78.67;101249.69;5014030;28;19972;-92
2022/01/11 10:14:53;;;;;;;;;;;;;;;1.14;78.67;101244.31;5016879;28;19968;-92
2022/01/11 10:17:22;;;;;;;;;;;;;;;1.21;78.55;101239.22;5015800;28;20430;-91
2022/01/11 10:20:01;;;;;;;;;;;;;;;1.20;78.21;101247.91;5008266;28;19921;-92
2022/01/11 10:22:29;;;;;;;;;;;;;;;1.20;78.20;101244.41;5011117;28;19972;-92
2022/01/11 10:24:55;;;;;;;;;;;;;;;1.22;78.15;101240.97;5015444;28;19922;-93
2022/01/11 10:27:22;;;;;;;;;;;;;;;1.21;77.98;101254.00;5015062;28;19922;-91
2022/01/11 10:29:51;;;;;;;;;;;;;;;1.30;77.72;101254.16;5004899;28;19996;-90
2022/01/11 10:32:16;;;;;;;;;;;;;;;1.27;77.59;101254.13;5015291;28;19921;-90
2022/01/11 10:34:42;;;;;;;;;;;;;;;1.32;77.59;101246.38;5016276;28;19921;-93
2022/01/11 10:37:13;;;;;;;;;;;;;;;1.30;77.80;101255.91;5016023;28;20404;-92
2022/01/11 10:39:39;;;;;;;;;;;;;;;1.35;77.79;101251.66;5020353;28;19929;-91
2022/01/11 10:42:06;;;;;;;;;;;;;;;1.34;77.79;101255.09;5008520;28;20281;-93
2022/01/11 10:44:43;;;;;;;;;;;;;;;1.35;77.73;101252.50;5005370;28;19933;-90
2022/01/11 10:47:09;;;;;;;;;;;;;;;1.60;79.07;101253.84;5006268;28;19932;-80
2022/01/11 10:49:41;;;;;;;;;;;;;;;2.31;79.10;101248.84;5020027;28;19925;-92
2022/01/11 10:52:23;;;;;;;;;;;;;;;1.79;78.92;101244.56;5002713;28;19944;-92
2022/01/11 10:55:02;;;;;;;;;;;;;;;;;;;;;
2022/01/11 10:57:44;;;;;;;;;;;;;;;1.61;78.44;101239.94;5016767;28;19927;-91
2022/01/11 11:00:22;;;;;;;;;;;;;;;1.59;78.00;101239.00;5006939;28;19925;-93
2022/01/11 11:02:58;;;;;;;;;;;;;;;1.54;77.57;101232.81;5002625;28;19917;-91
2022/01/11 11:05:54;;;;;;;;;;;;;;;;;;;;;
2022/01/11 11:08:21;;;;;;;;;;;;;;;1.57;77.00;101232.88;5015393;28;19944;-90
2022/01/11 11:11:02;;;;;;;;;;;;;;;1.54;76.81;101235.44;5012445;28;19924;-90
2022/01/11 11:13:35;;;;;;;;;;;;;;;1.55;76.76;101236.34;5014080;28;19921;-91
2022/01/11 11:16:16;;;;;;;;;;;;;;;1.56;76.83;101240.69;5020137;28;19922;-91
2022/01/11 11:18:58;;;;;;;;;;;;;;;1.57;76.78;101232.88;5020441;28;19922;-91
2022/01/11 11:21:52;;;;;;;;;;;;;;;1.57;76.48;101232.88;5013315;28;20292;-91
2022/01/11 11:24:20;;;;;;;;;;;;;;;1.60;76.71;101212.03;5012799;28;20380;-90
2022/01/11 11:26:49;;;;;;;;;;;;;;;1.61;76.56;101212.91;5013162;28;19925;-91
2022/01/11 11:29:19;;;;;;;;;;;;;;;1.61;76.36;101211.19;5012899;28;19929;-93
2022/01/11 11:31:54;;;;;;;;;;;;;;;1.60;76.45;101204.19;5014337;28;19917;-92
2022/01/11 11:34:22;;;;;;;;;;;;;;;1.63;76.26;101199.03;5013352;28;20054;-91
2022/01/11 11:37:08;;;;;;;;;;;;;;;1.62;76.19;101199.84;5014564;28;19973;-91
2022/01/11 11:39:49;;;;;;;;;;;;;;;1.65;76.10;101204.28;5015010;28;19987;-89
2022/01/11 11:42:16;;;;;;;;;;;;;;;1.65;75.91;101203.41;5014180;28;19921;-91
2022/01/11 11:44:46;;;;;;;;;;;;;;;1.65;75.94;101198.19;5014813;28;20446;-91
2022/01/11 11:47:45;;;;;;;;;;;;;;;1.66;75.89;101189.47;5004845;28;20415;-91
2022/01/11 11:50:21;;;;;;;;;;;;;;;1.65;75.85;101192.94;5003293;28;19925;-90
2022/01/11 11:52:50;;;;;;;;;;;;;;;1.68;75.73;101190.38;5009649;28;19953;-92
2022/01/11 11:55:24;;;;;;;;;;;;;;;1.66;75.28;101189.47;5014059;28;19917;-91
2022/01/11 11:58:08;;;;;;;;;;;;;;;1.65;75.37;101185.09;5014121;28;20392;-91
2022/01/11 12:00:36;;;;;;;;;;;;;;;1.71;75.59;101183.47;5006716;28;19952;-92
2022/01/11 12:03:19;;;;;;;;;;;;;;;1.70;75.58;101186.06;5013471;28;19921;-92
2022/01/11 12:05:48;;;;;;;;;;;;;;;1.76;75.87;101191.38;5013627;28;19948;-92
2022/01/11 12:08:34;;;;;;;;;;;;;;;1.72;75.66;101185.19;5010787;28;19959;-92
2022/01/11 12:13:58;;;;;;;;;;;;;;;1.73;75.33;101183.50;5008412;28;19921;-92
2022/01/11 12:16:35;;;;;;;;;;;;;;;1.69;75.25;101179.06;5015979;28;20020;-93
2022/01/11 12:19:04;;;;;;;;;;;;;;;1.78;75.40;101173.97;5015419;28;19921;-93
2022/01/11 12:21:38;;;;;;;;;;;;;;;1.80;75.56;101177.47;5012663;28;19917;-93
2022/01/11 12:24:32;;;;;;;;;;;;;;;1.81;75.21;101172.28;5016248;28;19956;-93
2022/01/11 12:27:13;;;;;;;;;;;;;;;1.83;75.28;101176.66;5013692;28;20327;-94
2022/01/11 12:29:51;;;;;;;;;;;;;;;1.82;75.49;101178.41;5013459;28;19930;-92
2022/01/11 12:32:19;;;;;;;;;;;;;;;1.85;75.40;101177.56;5012096;28;19931;-91
2022/01/11 12:34:48;;;;;;;;;;;;;;;1.85;75.40;101169.72;5014226;28;19918;-92
2022/01/11 12:37:28;;;;;;;;;;;;;;;1.88;75.35;101173.25;5010466;28;19931;-91
2022/01/11 12:40:24;;;;;;;;;;;;;;;1.89;75.50;101174.16;5008644;28;20078;-93
2022/01/11 12:43:05;;;;;;;;;;;;;;;;;;;;;
2022/01/11 12:45:59;;;;;;;;;;;;;;;;;;;;;
2022/01/11 12:48:53;;;;;;;;;;;;;;;1.95;75.44;101182.09;5014235;28;19924;-92
2022/01/11 12:51:22;;;;;;;;;;;;;;;2.05;76.55;101183.09;5012390;28;19929;-92
2022/01/11 12:54:16;;;;;;;;;;;;;;;;;;;;;
2022/01/11 12:57:00;;;;;;;;;;;;;;;;;;;;;
2022/01/11 12:59:41;;;;;;;;;;;;;;;;;;;;;
2022/01/11 13:02:25;;;;;;;;;;;;;;;;;;;;;
2022/01/11 13:05:17;;;;;;;;;;;;;;;;;;;;;
2022/01/11 13:07:56;;;;;;;;;;;;;;;;;;;;;
2022/01/11 13:10:35;;;;;;;;;;;;;;;2.79;89.79;101150.00;5011614;28;19933;-91
2022/01/11 13:13:41;;;;;;;;;;;;;;;;;;;;;
2022/01/11 13:16:37;;;;;;;;;;;;;;;;;;;;;
2022/01/11 13:19:42;;;;;;;;;;;;;;;;;;;;;
2022/01/11 13:22:18;;;;;;;;;;;;;;;2.66;94.72;101147.22;5012981;28;19922;-95
2022/01/11 13:25:12;;;;;;;;;;;;;;;2.66;96.03;101147.22;5010569;28;19980;-91
2022/01/11 13:28:13;;;;;;;;;;;;;;;;;;;;;
2022/01/11 13:31:09;;;;;;;;;;;;;;;;;;;;;
2022/01/11 13:34:04;;;;;;;;;;;;;;;;;;;;;
2022/01/11 13:36:41;;;;;;;;;;;;;;;;;;;;;
2022/01/11 13:39:25;;;;;;;;;;;;;;;3.39;100.00;101150.56;5012293;28;20330;-93
2022/01/11 13:41:57;;;;;;;;;;;;;;;3.47;100.00;101142.78;5010069;28;19983;-94
2022/01/11 13:44:24;;;;;;;;;;;;;;;3.58;100.00;101144.59;5010140;28;20471;-93
2022/01/11 13:47:22;;;;;;;;;;;;;;;3.69;100.00;101142.06;5011862;28;20365;-91
2022/01/11 13:50:01;;;;;;;;;;;;;;;3.76;100.00;101149.09;4935780;29;19936;-90
2022/01/11 13:52:52;;;;;;;;;;;;;;;3.82;100.00;101145.66;5019678;28;19929;-92
2022/01/11 13:55:51;;;;;;;;;;;;;;;;;;;;;
2022/01/11 13:58:38;;;;;;;;;;;;;;;3.99;100.00;101148.38;5009632;28;19921;-91
2022/01/11 14:07:58;;;;;;;;;;;;;;;;;;;;;
2022/01/11 14:17:16;;;;;;;;;;;;;;;;;;;;;
2022/01/11 14:19:59;;;;;;;;;;;;;;;;;;;;;
2022/01/11 14:22:50;;;;;;;;;;;;;;;4.55;100.00;101153.00;4971105;28;19922;-90
2022/01/11 14:25:28;;;;;;;;;;;;;;;4.61;100.00;101153.91;5006372;28;20372;-90
2022/01/11 14:28:08;;;;;;;;;;;;;;;3.75;100.00;101149.97;5009288;28;19971;-89
2022/01/11 14:30:58;;;;;;;;;;;;;;;3.26;100.00;101165.31;5009868;28;19925;-89
2022/01/11 14:33:30;;;;;;;;;;;;;;;2.98;100.00;101153.69;5003022;28;19925;-91
2022/01/11 14:36:19;;;;;;;;;;;;;;;2.82;100.00;101157.88;5007687;28;19922;-91
2022/01/11 14:39:24;;;;;;;;;;;;;;;2.69;100.00;101151.63;5013282;28;20335;-94
2022/01/11 14:42:18;;;;;;;;;;;;;;;2.61;100.00;101146.31;4983329;28;19922;-94
2022/01/11 14:44:59;;;;;;;;;;;;;;;2.48;99.62;101157.50;5010086;28;19947;-93
2022/01/11 14:47:42;;;;;;;;;;;;;;;2.47;98.03;101160.97;5012320;28;20013;-89
2022/01/11 14:50:43;;;;;;;;;;;;;;;;;;;;;
2022/01/11 14:53:07;;;;;;;;;;;;;;;2.27;95.63;101168.59;5008602;28;19921;-93
2022/01/11 14:55:46;;;;;;;;;;;;;;;2.24;94.83;101164.19;5013089;28;19926;-94
2022/01/11 14:59:10;;;;;;;;;;;;;;;;;;;;;
2022/01/11 15:01:18;;;;;;;;;;;;;;;2.08;92.74;101159.59;4995352;28;19921;-94
2022/01/11 15:04:00;;;;;;;;;;;;;;;;;;;;;
2022/01/11 15:07:12;;;;;;;;;;;;;;;2.24;91.28;101160.69;5013321;28;19931;-89
2022/01/11 15:09:45;;;;;;;;;;;;;;;2.15;90.34;101169.28;5011772;28;19926;-91
2022/01/11 15:12:17;;;;;;;;;;;;;;;1.95;89.61;101162.03;5012029;28;19918;-91
2022/01/11 15:14:56;;;;;;;;;;;;;;;;;;;;;
2022/01/11 15:17:40;;;;;;;;;;;;;;;1.87;89.34;101168.91;5010908;28;19928;-95
2022/01/11 15:20:15;;;;;;;;;;;;;;;1.81;88.81;101174.91;5022609;28;19925;-94
2022/01/11 15:22:53;;;;;;;;;;;;;;;;;;;;;
2022/01/11 15:28:45;;;;;;;;;;;;;;;;;;;;;
2022/01/11 15:38:00;;;;;;;;;;;;;;;;;;;;;
2022/01/11 15:40:58;;;;;;;;;;;;;;;;;;;;;
2022/01/11 15:44:00;;;;;;;;;;;;;;;;;;;;;
2022/01/11 15:46:46;;;;;;;;;;;;;;;;;;;;;
2022/01/11 15:52:41;;;;;;;;;;;;;;;;;;;;;
2022/01/11 15:55:43;;;;;;;;;;;;;;;;;;;;;
2022/01/11 15:58:31;;;;;;;;;;;;;;;1.40;86.09;101203.84;4968373;28;19929;-96
2022/01/11 16:01:45;;;;;;;;;;;;;;;;;;;;;
2022/01/11 16:07:24;;;;;;;;;;;;;;;;;;;;;
2022/01/11 16:10:41;;;;;;;;;;;;;;;;;;;;;
2022/01/11 16:16:23;;;;;;;;;;;;;;;1.18;85.59;101212.16;4962037;28;19926;-94
2022/01/11 16:19:03;;;;;;;;;;;;;;;;;;;;;
2022/01/11 16:24:22;;;;;;;;;;;;;;;1.36;84.98;101222.06;4975103;28;19965;-95
2022/01/11 16:26:54;;;;;;;;;;;;;;;1.25;85.03;101220.13;5031473;28;20415;-94
2022/01/11 16:29:41;;;;;;;;;;;;;;;;;;;;;
2022/01/11 16:32:23;;;;;;;;;;;;;;;1.14;85.41;101219.06;5018100;28;20007;-92
2022/01/11 16:35:19;;;;;;;;;;;;;;;1.15;85.09;101231.28;5014957;28;19918;-95
2022/01/11 16:38:04;;;;;;;;;;;;;;;;;;;;;
2022/01/11 16:43:37;;;;;;;;;;;;;;;;;;;;;
2022/01/11 16:46:36;;;;;;;;;;;;;;;;;;;;;
2022/01/11 16:49:32;;;;;;;;;;;;;;;1.07;84.63;101243.31;5011691;28;19917;-94
2022/01/11 16:52:27;;;;;;;;;;;;;;;;;;;;;
2022/01/11 16:58:10;;;;;;;;;;;;;;;;;;;;;
2022/01/11 17:00:58;;;;;;;;;;;;;;;1.02;84.15;101255.38;5014330;28;19921;-94
2022/01/11 17:26:26;;;;;;;;;;;;;;;;;;;;;
2022/01/11 17:42:21;;;;;;;;;;;;;;;;;;;;;
2022/01/11 17:54:42;;;;;;;;;;;;;;;;;;;;;
2022/01/11 18:04:08;;;;;;;;;;;;;;;;;;;;;
2022/01/11 18:44:52;;;;;;;;;;;;;;;;;;;;;
2022/01/11 18:57:10;;;;;;;;;;;;;;;;;;;;;
2022/01/11 19:06:31;;;;;;;;;;;;;;;;;;;;;
2022/01/11 19:09:33;;;;;;;;;;;;;;;;;;;;;
2022/01/11 19:15:42;;;;;;;;;;;;;;;;;;;;;
2022/01/11 19:31:04;;;;;;;;;;;;;;;;;;;;;
2022/01/11 19:37:33;;;;;;;;;;;;;;;;;;;;;
2022/01/11 19:39:50;;;;;;;;;;;;;;;;;;;;;
2022/01/11 19:48:50;;;;;;;;;;;;;;;;;;;;;
2022/01/11 19:52:31;;;;;;;;;;;;;;;;;;;;;
2022/01/11 20:04:17;;;;;;;;;;;;;;;;;;;;;
2022/01/11 20:16:31;;;;;;;;;;;;;;;0.90;77.03;101350.84;4841853;29;19920;-93
2022/01/11 20:31:40;;;;;;;;;;;;;;;;;;;;;
2022/01/11 20:35:00;;;;;;;;;;;;;;;;;;;;;
2022/01/11 20:38:16;;;;;;;;;;;;;;;1.12;76.44;101377.44;4903833;29;19938;-92
2022/01/11 20:41:03;;;;;;;;;;;;;;;;;;;;;
2022/01/11 20:53:40;;;;;;;;;;;;;;;;;;;;;
2022/01/11 21:06:03;;;;;;;;;;;;;;;;;;;;;
2022/01/11 21:08:49;;;;;;;;;;;;;;;;;;;;;
2022/01/11 21:11:16;;;;;;;;;;;;;;;1.22;74.40;101402.00;4923606;29;20321;-91
2022/01/11 21:13:46;;;;;;;;;;;;;;;1.25;74.49;101400.31;4959925;28;19921;-91
2022/01/11 21:27:49;;;;;;;;;;;;;;;1.28;74.31;101407.34;4967199;28;19922;-93
2022/01/11 21:30:50;;;;;;;;;;;;;;;;;;;;;
2022/01/11 21:36:26;;;;;;;;;;;;;;;;;;;;;
2022/01/11 21:47:20;;;;;;;;;;;;;;;1.34;73.61;101411.81;5005023;28;19928;-92
2022/01/11 21:49:51;;;;;;;;;;;;;;;1.38;73.58;101411.03;5018625;28;19929;-92
2022/01/11 21:52:49;;;;;;;;;;;;;;;;;;;;;
2022/01/11 21:55:24;;;;;;;;;;;;;;;1.43;73.53;101418.09;5002717;28;19944;-92
2022/01/11 21:58:25;;;;;;;;;;;;;;;;;;;;;
2022/01/11 22:07:25;;;;;;;;;;;;;;;1.43;73.32;101436.38;4820914;29;19995;-93
2022/01/11 22:10:21;;;;;;;;;;;;;;;;;;;;;
2022/01/11 22:13:25;;;;;;;;;;;;;;;;;;;;;
2022/01/11 22:19:22;;;;;;;;;;;;;;;1.47;73.03;101439.97;4959872;28;19935;-93
2022/01/11 22:22:35;;;;;;;;;;;;;;;;;;;;;
2022/01/11 22:26:01;;;;;;;;;;;;;;;1.49;72.76;101442.63;4886017;29;20010;-94
2022/01/11 22:38:06;;;;;;;;;;;;;;;1.54;72.42;101451.41;4997224;28;20346;-92
2022/01/11 22:41:01;;;;;;;;;;;;;;;;;;;;;
2022/01/11 22:43:32;;;;;;;;;;;;;;;1.48;72.30;101459.13;5002777;28;19925;-94
2022/01/11 22:46:16;;;;;;;;;;;;;;;;;;;;;
2022/01/11 22:49:27;;;;;;;;;;;;;;;;;;;;;
2022/01/11 22:51:55;;;;;;;;;;;;;;;1.51;72.31;101457.44;4984426;28;19928;-92
2022/01/11 22:54:20;;;;;;;;;;;;;;;1.55;72.27;101463.66;5004626;28;19961;-89
2022/01/11 22:56:56;;;;;;;;;;;;;;;1.52;72.15;101464.47;5002427;28;19967;-91
2022/01/11 22:59:21;;;;;;;;;;;;;;;1.55;72.26;101472.34;5021344;28;20333;-88
2022/01/11 23:01:46;;;;;;;;;;;;;;;1.56;72.16;101470.63;5002119;28;19964;-91
2022/01/11 23:04:12;;;;;;;;;;;;;;;1.53;72.15;101475.78;5013306;28;19941;-92
2022/01/11 23:06:41;;;;;;;;;;;;;;;1.56;72.20;101478.47;5008732;28;19918;-90
2022/01/11 23:09:08;;;;;;;;;;;;;;;1.54;71.94;101478.41;5003456;28;19918;-92
2022/01/11 23:11:36;;;;;;;;;;;;;;;1.58;72.11;101481.97;5004132;28;19989;-88
2022/01/11 23:16:53;;;;;;;;;;;;;;;1.55;71.85;101474.97;4981572;28;20465;-87
2022/01/11 23:19:26;;;;;;;;;;;;;;;1.57;71.85;101475.88;5003360;28;20021;-92
2022/01/11 23:21:54;;;;;;;;;;;;;;;1.63;71.86;101478.63;5020280;28;19918;-93
2022/01/11 23:24:20;;;;;;;;;;;;;;;1.65;71.81;101476.03;5019147;28;20287;-90
2022/01/11 23:26:47;;;;;;;;;;;;;;;1.66;71.74;101482.13;5003991;28;19917;-91
2022/01/11 23:29:17;;;;;;;;;;;;;;;1.65;71.65;101467.34;5012196;28;19964;-92
2022/01/11 23:31:49;;;;;;;;;;;;;;;1.67;71.66;101470.84;5020290;28;20360;-92
2022/01/11 23:34:18;;;;;;;;;;;;;;;1.67;71.52;101468.22;5000958;28;19925;-92
2022/01/11 23:36:48;;;;;;;;;;;;;;;1.65;71.65;101464.72;5019803;28;19922;-94
2022/01/11 23:42:24;;;;;;;;;;;;;;;1.70;71.35;101465.69;5002201;28;19975;-90
2022/01/11 23:45:50;;;;;;;;;;;;;;;1.70;71.27;101460.47;5012314;28;19921;-93
2022/01/11 23:47:35;;;;;;;;;;;;;;;1.69;71.19;101466.53;4999747;28;19932;-93
2022/01/11 23:50:06;;;;;;;;;;;;;;;1.76;71.33;101457.97;5000384;28;19929;-92
2022/01/11 23:52:32;;;;;;;;;;;;;;;1.75;71.32;101443.13;5016008;28;19926;-92
2022/01/11 23:54:57;;;;;;;;;;;;;;;1.76;71.18;101447.50;5003691;28;19917;-90
2022/01/11 23:57:22;;;;;;;;;;;;;;;1.75;71.12;101440.50;5002454;28;19945;-91
2022/01/11 23:59:50;;;;;;;;;;;;;;;1.76;71.18;101444.91;4997860;28;19991;-90
